createdAt,value
2022-10-09T00:01:11.259Z,8.33
2022-10-09T00:04:05.868Z,8.26
2022-10-09T00:06:54.393Z,8.15
2022-10-09T00:09:39.966Z,8.18
2022-10-09T00:12:25.557Z,8.18
2022-10-09T00:15:12.890Z,8.34
2022-10-09T00:17:58.741Z,8.33
2022-10-09T00:20:46.234Z,8.26
2022-10-09T00:23:32.595Z,8.25
2022-10-09T00:26:18.765Z,8.34
2022-10-09T00:29:04.684Z,8.22
2022-10-09T00:31:51.292Z,8.22
2022-10-09T00:34:36.913Z,8.05
2022-10-09T00:37:22.393Z,8.24
2022-10-09T00:40:08.315Z,8.25
2022-10-09T00:42:58.277Z,8.22
2022-10-09T00:45:56.552Z,8.13
2022-10-09T00:48:42.748Z,8.14
2022-10-09T00:51:30.474Z,8.20
2022-10-09T00:54:20.517Z,8.08
2022-10-09T00:57:08.091Z,8.08
2022-10-09T00:59:54.330Z,8.00
2022-10-09T01:02:40.708Z,8.18
2022-10-09T01:05:53.206Z,8.06
2022-10-09T01:09:00.998Z,8.07
2022-10-09T01:12:04.499Z,8.06
2022-10-09T01:14:59.258Z,8.12
2022-10-09T01:17:56.840Z,7.99
2022-10-09T01:20:54.647Z,8.05
2022-10-09T01:24:03.255Z,8.10
2022-10-09T01:26:57.855Z,8.06
2022-10-09T01:29:48.143Z,8.06
2022-10-09T01:32:37.518Z,7.91
2022-10-09T01:35:24.259Z,7.93
2022-10-09T01:38:10.083Z,7.66
2022-10-09T01:40:56.945Z,7.87
2022-10-09T01:43:43.002Z,7.84
2022-10-09T01:46:33.282Z,7.88
2022-10-09T01:49:27.884Z,7.93
2022-10-09T01:52:40.965Z,7.87
2022-10-09T01:55:53.795Z,7.78
2022-10-09T01:58:45.882Z,7.75
2022-10-09T02:01:35.910Z,7.66
2022-10-09T02:04:24.413Z,7.53
2022-10-09T02:07:10.686Z,7.60
2022-10-09T02:09:57.717Z,7.57
2022-10-09T02:12:50.205Z,7.55
2022-10-09T02:16:03.803Z,7.46
2022-10-09T02:18:59.826Z,7.27
2022-10-09T02:21:54.512Z,7.25
2022-10-09T02:24:41.765Z,7.50
2022-10-09T02:27:30.450Z,7.37
2022-10-09T02:30:17.833Z,7.36
2022-10-09T02:33:05.605Z,7.35
2022-10-09T02:35:51.358Z,7.46
2022-10-09T02:38:37.236Z,7.35
2022-10-09T02:41:23.564Z,7.42
2022-10-09T02:44:10.025Z,7.38
2022-10-09T02:46:55.967Z,7.26
2022-10-09T02:49:41.465Z,7.18
2022-10-09T02:52:27.788Z,7.22
2022-10-09T02:55:13.391Z,7.16
2022-10-09T02:57:58.858Z,7.19
2022-10-09T03:00:52.512Z,7.14
2022-10-09T03:03:39.449Z,7.12
2022-10-09T03:06:26.598Z,7.16
2022-10-09T03:09:13.259Z,7.20
2022-10-09T03:11:59.163Z,7.13
2022-10-09T03:14:46.081Z,7.05
2022-10-09T03:17:32.007Z,7.07
2022-10-09T03:20:18.835Z,7.11
2022-10-09T03:23:05.810Z,7.10
2022-10-09T03:25:59.985Z,6.99
2022-10-09T03:28:48.758Z,6.95
2022-10-09T03:31:52.830Z,6.92
2022-10-09T03:34:39.049Z,6.92
2022-10-09T03:37:25.353Z,6.92
2022-10-09T03:40:11.066Z,7.18
2022-10-09T03:42:56.478Z,6.97
2022-10-09T03:45:44.062Z,7.11
2022-10-09T03:48:30.128Z,6.87
2022-10-09T03:51:16.908Z,6.94
2022-10-09T03:54:02.678Z,6.90
2022-10-09T03:56:48.161Z,6.73
2022-10-09T03:59:35.638Z,6.69
2022-10-09T04:02:21.576Z,6.70
2022-10-09T04:05:08.438Z,6.60
2022-10-09T04:07:55.173Z,6.78
2022-10-09T04:10:40.794Z,6.79
2022-10-09T04:13:26.807Z,6.54
2022-10-09T04:16:13.168Z,6.78
2022-10-09T04:19:00.017Z,6.72
2022-10-09T04:21:45.907Z,6.82
2022-10-09T04:24:31.849Z,6.76
2022-10-09T04:27:18.756Z,6.84
2022-10-09T04:30:05.564Z,6.90
2022-10-09T04:32:51.883Z,6.90
2022-10-09T04:35:43.408Z,7.01
2022-10-09T04:38:31.369Z,6.83
2022-10-09T04:41:16.936Z,6.71
2022-10-09T04:44:04.220Z,6.61
2022-10-09T04:46:52.123Z,6.47
2022-10-09T04:49:38.038Z,6.35
2022-10-09T04:52:23.950Z,6.32
2022-10-09T04:55:09.448Z,6.36
2022-10-09T04:57:56.775Z,6.27
2022-10-09T05:00:44.252Z,6.20
2022-10-09T05:03:31.326Z,6.27
2022-10-09T05:06:17.982Z,6.23
2022-10-09T05:09:05.420Z,6.16
2022-10-09T05:11:51.326Z,6.10
2022-10-09T05:14:36.834Z,6.02
2022-10-09T05:17:23.868Z,6.16
2022-10-09T05:20:10.056Z,6.03
2022-10-09T05:22:56.822Z,6.06
2022-10-09T05:25:42.876Z,6.16
2022-10-09T05:28:28.889Z,6.19
2022-10-09T05:31:26.747Z,6.12
2022-10-09T05:34:12.520Z,6.15
2022-10-09T05:36:58.074Z,6.12
2022-10-09T05:39:44.428Z,5.96
2022-10-09T05:42:30.268Z,5.99
2022-10-09T05:45:15.745Z,5.91
2022-10-09T05:48:02.170Z,5.99
2022-10-09T05:50:48.331Z,5.91
2022-10-09T05:53:35.011Z,6.00
2022-10-09T05:56:26.778Z,6.01
2022-10-09T05:59:16.553Z,6.12
2022-10-09T06:02:02.217Z,6.04
2022-10-09T06:04:48.553Z,5.92
2022-10-09T06:07:35.874Z,6.06
2022-10-09T06:10:21.688Z,6.26
2022-10-09T06:13:07.301Z,6.46
2022-10-09T06:15:56.141Z,6.47
2022-10-09T06:18:48.120Z,6.62
2022-10-09T06:21:34.933Z,6.77
2022-10-09T06:24:28.838Z,6.98
2022-10-09T06:27:15.323Z,7.41
2022-10-09T06:30:01.002Z,7.58
2022-10-09T06:32:47.406Z,7.80
2022-10-09T06:35:35.825Z,7.94
2022-10-09T06:38:22.485Z,8.13
2022-10-09T06:41:15.480Z,8.28
2022-10-09T06:44:05.334Z,8.63
2022-10-09T06:46:51.523Z,9.06
2022-10-09T06:49:37.821Z,9.09
2022-10-09T06:52:23.337Z,9.08
2022-10-09T06:55:09.123Z,9.63
2022-10-09T06:57:54.939Z,9.67
2022-10-09T07:00:40.867Z,9.98
2022-10-09T07:03:26.752Z,10.32
2022-10-09T07:06:20.817Z,10.82
2022-10-09T07:09:09.898Z,11.36
2022-10-09T07:11:55.475Z,11.57
2022-10-09T07:14:40.756Z,11.81
2022-10-09T07:17:27.127Z,12.46
2022-10-09T07:20:14.215Z,12.72
2022-10-09T07:22:59.700Z,13.12
2022-10-09T07:25:45.187Z,13.38
2022-10-09T07:28:31.931Z,13.87
2022-10-09T07:31:23.935Z,14.23
2022-10-09T07:38:25.046Z,15.06
2022-10-09T07:41:12.473Z,15.84
2022-10-09T07:43:59.205Z,16.70
2022-10-09T07:46:48.459Z,16.77
2022-10-09T07:49:33.844Z,17.23
2022-10-09T07:52:19.471Z,17.85
2022-10-09T07:55:05.348Z,18.08
2022-10-09T07:57:51.411Z,17.53
2022-10-09T08:00:37.920Z,18.03
2022-10-09T08:03:23.850Z,18.10
2022-10-09T08:06:09.743Z,19.40
2022-10-09T08:08:58.321Z,19.16
2022-10-09T08:11:45.570Z,19.77
2022-10-09T08:14:31.510Z,20.40
2022-10-09T08:17:18.554Z,19.12
2022-10-09T08:20:05.236Z,18.89
2022-10-09T08:22:51.682Z,21.02
2022-10-09T08:25:39.056Z,20.82
2022-10-09T08:28:25.083Z,21.67
2022-10-09T08:31:16.603Z,22.97
2022-10-09T08:34:03.858Z,23.19
2022-10-09T08:36:49.676Z,23.78
2022-10-09T08:39:35.885Z,23.65
2022-10-09T08:42:37.486Z,23.89
2022-10-09T08:45:23.505Z,24.59
2022-10-09T08:48:19.040Z,25.13
2022-10-09T08:51:09.262Z,24.23
2022-10-09T08:54:01.523Z,24.65
2022-10-09T08:56:50.839Z,25.58
2022-10-09T08:59:36.570Z,25.97
2022-10-09T09:02:43.758Z,24.28
2022-10-09T09:05:40.001Z,25.05
2022-10-09T09:08:28.044Z,25.63
2022-10-09T09:11:21.796Z,24.80
2022-10-09T09:14:45.118Z,26.18
2022-10-09T09:17:54.186Z,28.00
2022-10-09T09:20:51.027Z,27.59
2022-10-09T09:23:42.447Z,26.61
2022-10-09T09:26:28.729Z,26.63
2022-10-09T09:29:17.480Z,26.37
2022-10-09T09:32:17.448Z,26.81
2022-10-09T09:35:25.388Z,28.29
2022-10-09T09:38:10.835Z,27.04
2022-10-09T09:40:56.502Z,26.95
2022-10-09T09:43:42.896Z,27.73
2022-10-09T09:46:30.466Z,27.35
2022-10-09T09:49:23.617Z,27.30
2022-10-09T09:52:09.383Z,27.14
2022-10-09T09:54:57.368Z,26.76
2022-10-09T09:57:47.854Z,27.94
2022-10-09T10:00:34.936Z,28.17
2022-10-09T10:03:21.269Z,29.71
2022-10-09T10:06:21.781Z,29.05
2022-10-09T10:09:17.542Z,29.65
2022-10-09T10:12:06.155Z,28.60
2022-10-09T10:14:51.597Z,28.22
2022-10-09T10:17:37.642Z,29.29
2022-10-09T10:20:23.793Z,28.07
2022-10-09T10:23:30.038Z,28.76
2022-10-09T10:26:37.459Z,30.27
2022-10-09T10:29:42.669Z,30.33
2022-10-09T10:32:53.307Z,27.57
2022-10-09T10:35:44.364Z,28.21
2022-10-09T10:38:42.710Z,29.89
2022-10-09T10:41:33.589Z,31.28
2022-10-09T10:44:29.079Z,32.70
2022-10-09T10:47:26.655Z,30.55
2022-10-09T10:50:18.201Z,29.11
2022-10-09T10:53:14.895Z,28.85
2022-10-09T10:56:07.300Z,26.14
2022-10-09T10:59:13.324Z,29.67
2022-10-09T11:02:45.562Z,30.22
2022-10-09T11:05:49.073Z,31.97
2022-10-09T11:08:45.972Z,32.11
2022-10-09T11:11:42.914Z,30.36
2022-10-09T11:14:41.179Z,30.19
2022-10-09T11:17:51.866Z,31.33
2022-10-09T11:20:54.421Z,32.51
2022-10-09T11:24:04.160Z,31.59
2022-10-09T11:27:06.704Z,30.89
2022-10-09T11:30:02.290Z,27.11
2022-10-09T11:32:59.030Z,28.72
2022-10-09T11:35:48.386Z,31.05
2022-10-09T11:38:38.167Z,31.87
2022-10-09T11:41:25.880Z,32.48
2022-10-09T11:44:38.387Z,27.85
2022-10-09T11:47:42.591Z,25.87
2022-10-09T11:51:00.678Z,25.48
2022-10-09T11:53:48.358Z,23.17
2022-10-09T11:56:34.891Z,23.67
2022-10-09T11:59:31.094Z,24.16
2022-10-09T12:02:30.702Z,27.55
2022-10-09T12:05:18.695Z,30.14
2022-10-09T12:08:30.235Z,33.53
2022-10-09T12:11:18.572Z,31.46
2022-10-09T12:14:11.249Z,33.19
2022-10-09T12:16:57.357Z,32.53
2022-10-09T12:19:46.423Z,32.90
2022-10-09T12:22:39.821Z,32.91
2022-10-09T12:25:32.408Z,31.74
2022-10-09T12:28:23.956Z,29.22
2022-10-09T12:31:31.876Z,32.22
2022-10-09T12:34:34.127Z,32.29
2022-10-09T12:37:22.969Z,30.93
2022-10-09T12:40:15.272Z,30.29
2022-10-09T12:43:12.190Z,29.64
2022-10-09T12:45:58.286Z,31.23
2022-10-09T12:48:45.770Z,30.97
2022-10-09T12:51:33.367Z,28.49
2022-10-09T12:54:19.428Z,27.93
2022-10-09T12:57:14.417Z,29.67
2022-10-09T13:00:08.135Z,30.03
2022-10-09T13:02:54.537Z,31.93
2022-10-09T13:05:42.582Z,32.50
2022-10-09T13:08:31.836Z,31.26
2022-10-09T13:11:41.137Z,30.86
2022-10-09T13:14:35.606Z,30.62
2022-10-09T13:17:35.573Z,32.11
2022-10-09T13:20:27.105Z,32.18
2022-10-09T13:23:30.585Z,32.57
2022-10-09T13:26:28.510Z,32.10
2022-10-09T13:29:14.881Z,32.77
2022-10-09T13:32:00.314Z,32.34
2022-10-09T13:34:46.839Z,31.54
2022-10-09T13:37:32.607Z,32.55
2022-10-09T13:40:20.741Z,32.19
2022-10-09T13:43:06.202Z,31.37
2022-10-09T13:45:52.015Z,30.63
2022-10-09T13:48:37.992Z,30.72
2022-10-09T13:51:24.699Z,31.42
2022-10-09T13:54:10.515Z,32.32
2022-10-09T13:56:56.099Z,31.82
2022-10-09T13:59:42.338Z,31.01
2022-10-09T14:02:28.084Z,29.77
2022-10-09T14:05:13.707Z,29.56
2022-10-09T14:08:01.448Z,30.83
2022-10-09T14:10:46.973Z,30.49
2022-10-09T14:13:32.831Z,28.15
2022-10-09T14:16:18.609Z,29.69
2022-10-09T14:19:05.610Z,30.16
2022-10-09T14:21:51.720Z,30.09
2022-10-09T14:24:38.123Z,29.81
2022-10-09T14:27:23.741Z,29.33
2022-10-09T14:30:10.282Z,28.60
2022-10-09T14:32:56.055Z,28.79
2022-10-09T14:35:42.038Z,28.83
2022-10-09T14:38:27.593Z,28.42
2022-10-09T14:41:14.444Z,27.65
2022-10-09T14:44:00.867Z,28.47
2022-10-09T14:46:46.887Z,28.23
2022-10-09T14:49:32.545Z,27.83
2022-10-09T14:52:18.751Z,27.08
2022-10-09T14:55:13.610Z,26.84
2022-10-09T14:58:00.539Z,26.50
2022-10-09T15:00:47.578Z,26.91
2022-10-09T15:03:35.057Z,27.02
2022-10-09T15:06:24.043Z,25.81
2022-10-09T15:09:17.278Z,22.99
2022-10-09T15:12:02.906Z,21.72
2022-10-09T15:14:48.372Z,20.60
2022-10-09T15:17:34.515Z,19.90
2022-10-09T15:20:19.854Z,19.35
2022-10-09T15:23:06.352Z,18.60
2022-10-09T15:25:59.367Z,18.52
2022-10-09T15:28:47.491Z,18.34
2022-10-09T15:31:42.292Z,18.04
2022-10-09T15:34:28.791Z,17.62
2022-10-09T15:37:14.335Z,17.96
2022-10-09T15:40:03.009Z,17.63
2022-10-09T15:42:48.872Z,17.52
2022-10-09T15:45:35.217Z,17.19
2022-10-09T15:48:24.119Z,17.28
2022-10-09T15:51:13.644Z,17.14
2022-10-09T15:54:01.367Z,16.75
2022-10-09T15:56:47.562Z,16.41
2022-10-09T15:59:36.236Z,16.07
2022-10-09T16:02:21.775Z,16.10
2022-10-09T16:05:10.173Z,15.97
2022-10-09T16:07:56.173Z,16.01
2022-10-09T16:10:49.011Z,15.92
2022-10-09T16:13:39.725Z,15.86
2022-10-09T16:16:27.649Z,15.71
2022-10-09T16:19:13.797Z,15.37
2022-10-09T16:21:59.441Z,15.34
2022-10-09T16:24:45.477Z,15.05
2022-10-09T16:27:31.312Z,15.06
2022-10-09T16:30:17.316Z,15.01
2022-10-09T16:33:08.049Z,14.73
2022-10-09T16:36:08.524Z,14.59
2022-10-09T16:38:55.599Z,14.28
2022-10-09T16:41:42.596Z,14.29
2022-10-09T16:44:31.535Z,14.15
2022-10-09T16:47:17.825Z,13.98
2022-10-09T16:50:03.659Z,13.68
2022-10-09T16:52:55.678Z,13.60
2022-10-09T16:55:41.175Z,13.46
2022-10-09T16:58:27.189Z,13.23
2022-10-09T17:01:15.499Z,13.36
2022-10-09T17:04:00.854Z,13.22
2022-10-09T17:06:46.769Z,13.18
2022-10-09T17:09:33.451Z,12.82
2022-10-09T17:12:19.586Z,12.72
2022-10-09T17:15:06.391Z,12.65
2022-10-09T17:17:52.175Z,12.72
2022-10-09T17:20:39.322Z,12.73
2022-10-09T17:23:25.010Z,12.82
2022-10-09T17:26:16.872Z,12.70
2022-10-09T17:29:04.884Z,12.83
2022-10-09T17:31:52.364Z,12.76
2022-10-09T17:34:43.037Z,12.55
2022-10-09T17:37:29.189Z,12.68
2022-10-09T17:40:14.866Z,12.56
2022-10-09T17:43:00.326Z,12.27
2022-10-09T17:45:48.465Z,12.37
2022-10-09T17:48:35.815Z,12.27
2022-10-09T17:51:25.960Z,12.26
2022-10-09T17:54:16.664Z,12.10
2022-10-09T17:57:05.128Z,12.20
2022-10-09T17:59:50.562Z,12.07
2022-10-09T18:02:35.943Z,11.99
2022-10-09T18:05:25.977Z,12.01
2022-10-09T18:08:12.964Z,11.88
2022-10-09T18:11:01.007Z,12.04
2022-10-09T18:13:47.045Z,11.91
2022-10-09T18:16:36.780Z,11.97
2022-10-09T18:19:26.023Z,11.94
2022-10-09T18:22:11.531Z,11.90
2022-10-09T18:25:00.114Z,11.76
2022-10-09T18:27:45.710Z,11.66
2022-10-09T18:30:31.425Z,11.72
2022-10-09T18:33:17.297Z,11.79
2022-10-09T18:36:08.869Z,11.71
2022-10-09T18:38:58.703Z,11.59
2022-10-09T18:41:49.573Z,11.57
2022-10-09T18:44:40.249Z,11.76
2022-10-09T18:47:32.606Z,11.78
2022-10-09T18:50:18.537Z,11.74
2022-10-09T18:53:04.177Z,11.73
2022-10-09T18:55:50.204Z,11.56
2022-10-09T18:58:37.694Z,11.60
2022-10-09T19:01:23.337Z,11.60
2022-10-09T19:04:10.559Z,11.65
2022-10-09T19:06:56.496Z,11.64
2022-10-09T19:09:41.811Z,11.62
2022-10-09T19:12:27.358Z,11.56
2022-10-09T19:15:15.081Z,11.48
2022-10-09T19:18:01.479Z,11.56
2022-10-09T19:20:48.102Z,11.54
2022-10-09T19:23:33.902Z,11.59
2022-10-09T19:26:20.972Z,11.41
2022-10-09T19:29:08.299Z,11.52
2022-10-09T19:31:54.336Z,11.48
2022-10-09T19:34:39.732Z,11.42
2022-10-09T19:37:28.921Z,11.44
2022-10-09T19:40:15.657Z,11.44
2022-10-09T19:43:03.002Z,11.49
2022-10-09T19:45:50.648Z,11.32
2022-10-09T19:48:36.843Z,11.20
2022-10-09T19:51:26.186Z,11.18
2022-10-09T19:54:11.605Z,11.16
2022-10-09T19:56:57.667Z,11.22
2022-10-09T19:59:43.814Z,11.15
2022-10-09T20:02:29.242Z,11.06
2022-10-09T20:05:14.676Z,11.11
2022-10-09T20:08:00.625Z,11.05
2022-10-09T20:10:46.703Z,11.04
2022-10-09T20:13:34.430Z,11.24
2022-10-09T20:16:20.231Z,11.15
2022-10-09T20:19:06.118Z,11.27
2022-10-09T20:21:53.007Z,11.21
2022-10-09T20:24:38.615Z,11.13
2022-10-09T20:27:24.170Z,11.21
2022-10-09T20:30:10.204Z,11.13
2022-10-09T20:32:59.165Z,11.08
2022-10-09T20:35:44.940Z,11.03
2022-10-09T20:38:30.676Z,11.04
2022-10-09T20:41:16.977Z,11.16
2022-10-09T20:44:02.848Z,10.94
2022-10-09T20:46:48.715Z,10.94
2022-10-09T20:49:34.315Z,10.95
2022-10-09T20:52:19.682Z,10.90
2022-10-09T20:55:05.651Z,11.06
2022-10-09T20:57:54.822Z,11.06
2022-10-09T21:00:44.101Z,11.06
2022-10-09T21:03:29.967Z,10.96
2022-10-09T21:06:18.029Z,11.11
2022-10-09T21:09:04.626Z,11.10
2022-10-09T21:11:53.238Z,10.86
2022-10-09T21:14:39.045Z,10.76
2022-10-09T21:17:24.452Z,10.76
2022-10-09T21:20:09.901Z,10.77
2022-10-09T21:22:55.510Z,10.54
2022-10-09T21:25:52.166Z,10.62
2022-10-09T21:28:37.750Z,10.70
2022-10-09T21:31:26.233Z,10.53
2022-10-09T21:34:11.573Z,10.64
2022-10-09T21:40:03.902Z,10.35
2022-10-09T21:42:49.974Z,10.44
2022-10-09T21:45:35.921Z,10.27
2022-10-09T21:48:21.729Z,10.23
2022-10-09T21:51:07.874Z,10.24
2022-10-09T21:53:54.600Z,9.98
2022-10-09T21:56:40.160Z,10.13
2022-10-09T21:59:25.593Z,10.10
2022-10-09T22:02:11.021Z,10.02
2022-10-09T22:04:57.218Z,9.96
2022-10-09T22:07:42.826Z,9.89
2022-10-09T22:10:28.488Z,9.85
2022-10-09T22:13:14.078Z,9.88
2022-10-09T22:15:59.585Z,9.66
2022-10-09T22:18:45.606Z,9.99
2022-10-09T22:21:31.408Z,10.03
2022-10-09T22:24:16.840Z,10.15
2022-10-09T22:27:02.241Z,10.00
2022-10-09T22:29:47.927Z,9.89
2022-10-09T22:32:33.529Z,9.80
2022-10-09T22:35:19.244Z,9.76
2022-10-09T22:38:04.718Z,9.83
2022-10-09T22:40:50.210Z,9.82
2022-10-09T22:43:36.564Z,9.87
2022-10-09T22:46:31.242Z,9.79
2022-10-09T22:49:17.197Z,9.61
2022-10-09T22:52:03.753Z,9.70
2022-10-09T22:54:49.181Z,9.63
2022-10-09T22:57:34.859Z,9.67
2022-10-09T23:00:20.200Z,9.58
2022-10-09T23:03:05.573Z,9.57
2022-10-09T23:05:50.853Z,9.58
2022-10-09T23:08:41.065Z,9.55
2022-10-09T23:11:29.576Z,9.46
2022-10-09T23:14:15.288Z,9.43
2022-10-09T23:17:00.827Z,9.28
2022-10-09T23:19:46.488Z,9.43
2022-10-09T23:22:32.311Z,9.36
2022-10-09T23:25:17.987Z,9.28
2022-10-09T23:28:03.304Z,9.10
2022-10-09T23:30:49.103Z,9.07
2022-10-09T23:33:35.694Z,9.02
2022-10-09T23:36:23.336Z,9.00
2022-10-09T23:39:09.075Z,8.83
2022-10-09T23:41:54.466Z,8.78
2022-10-09T23:44:40.074Z,8.80
2022-10-09T23:47:25.388Z,8.77
2022-10-09T23:50:10.702Z,8.90
2022-10-09T23:52:56.090Z,8.75
2022-10-09T23:55:41.868Z,8.86
2022-10-09T23:58:27.414Z,8.94
